createdAt,value
2019-02-26T00:01:03.646Z,8.30
2019-02-26T00:03:33.235Z,8.20
2019-02-26T00:06:03.966Z,7.90
2019-02-26T00:08:40.661Z,7.70
2019-02-26T00:11:10.836Z,7.60
2019-02-26T00:13:50.745Z,7.60
2019-02-26T00:16:20.937Z,7.50
2019-02-26T00:18:56.259Z,7.40
2019-02-26T00:21:26.435Z,7.60
2019-02-26T00:23:55.695Z,7.70
2019-02-26T00:26:25.135Z,7.80
2019-02-26T00:28:53.878Z,7.80
2019-02-26T00:31:24.292Z,7.80
2019-02-26T00:33:53.289Z,7.80
2019-02-26T00:36:22.046Z,7.50
2019-02-26T00:38:50.984Z,7.20
2019-02-26T00:41:20.744Z,7.10
2019-02-26T00:43:53.174Z,7.00
2019-02-26T00:46:24.105Z,7.10
2019-02-26T00:48:51.549Z,7.10
2019-02-26T00:51:21.061Z,7.00
2019-02-26T00:53:52.813Z,6.80
2019-02-26T00:56:22.783Z,6.90
2019-02-26T00:58:52.149Z,6.80
2019-02-26T01:01:21.761Z,6.80
2019-02-26T01:03:51.967Z,6.80
2019-02-26T01:06:22.626Z,6.90
2019-02-26T01:08:51.838Z,7.00
2019-02-26T01:11:21.612Z,6.90
2019-02-26T01:13:52.799Z,6.80
2019-02-26T01:16:21.821Z,7.00
2019-02-26T01:18:51.117Z,6.90
2019-02-26T01:21:24.113Z,6.80
2019-02-26T01:23:51.862Z,6.80
2019-02-26T01:26:20.635Z,6.90
2019-02-26T01:28:51.053Z,7.00
2019-02-26T01:31:22.423Z,7.30
2019-02-26T01:33:52.898Z,7.20
2019-02-26T01:36:27.138Z,7.20
2019-02-26T01:38:55.973Z,7.20
2019-02-26T01:41:26.854Z,7.00
2019-02-26T01:43:55.323Z,6.90
2019-02-26T01:46:24.252Z,6.90
2019-02-26T01:48:55.064Z,6.80
2019-02-26T01:51:24.079Z,6.70
2019-02-26T01:53:54.149Z,6.60
2019-02-26T01:56:22.984Z,6.60
2019-02-26T01:58:56.686Z,6.60
2019-02-26T02:01:23.993Z,6.60
2019-02-26T02:03:56.123Z,6.60
2019-02-26T02:06:24.580Z,6.70
2019-02-26T02:08:55.519Z,6.90
2019-02-26T02:11:28.436Z,6.90
2019-02-26T02:13:54.794Z,6.90
2019-02-26T02:16:24.205Z,7.00
2019-02-26T02:18:55.405Z,7.00
2019-02-26T02:21:25.993Z,7.00
2019-02-26T02:23:55.593Z,7.20
2019-02-26T02:26:24.389Z,7.30
2019-02-26T02:28:53.661Z,7.30
2019-02-26T02:31:24.548Z,7.50
2019-02-26T02:33:52.868Z,7.50
2019-02-26T02:36:23.685Z,7.60
2019-02-26T02:38:52.908Z,7.40
2019-02-26T02:41:21.731Z,6.90
2019-02-26T02:43:50.669Z,6.70
2019-02-26T02:46:19.401Z,6.50
2019-02-26T02:48:48.464Z,6.60
2019-02-26T02:51:17.177Z,6.80
2019-02-26T02:53:47.809Z,6.90
2019-02-26T02:56:18.004Z,7.00
2019-02-26T02:58:48.805Z,7.00
2019-02-26T03:01:19.582Z,7.10
2019-02-26T03:03:50.286Z,7.10
2019-02-26T03:06:18.344Z,6.60
2019-02-26T03:08:48.842Z,6.60
2019-02-26T03:11:17.987Z,6.50
2019-02-26T03:13:48.636Z,6.70
2019-02-26T03:16:19.486Z,6.90
2019-02-26T03:18:48.478Z,7.00
2019-02-26T03:21:19.596Z,7.00
2019-02-26T03:23:47.681Z,7.10
2019-02-26T03:26:17.944Z,7.00
2019-02-26T03:28:48.028Z,6.90
2019-02-26T03:31:17.698Z,6.80
2019-02-26T03:33:46.460Z,6.90
2019-02-26T03:36:16.652Z,6.90
2019-02-26T03:38:48.386Z,6.90
2019-02-26T03:41:17.059Z,6.80
2019-02-26T03:43:46.980Z,6.60
2019-02-26T03:46:15.701Z,6.30
2019-02-26T03:48:44.679Z,6.30
2019-02-26T03:51:17.192Z,6.50
2019-02-26T03:53:44.149Z,6.80
2019-02-26T03:56:14.780Z,6.90
2019-02-26T03:58:43.688Z,6.70
2019-02-26T04:01:13.625Z,6.50
2019-02-26T04:03:43.110Z,6.10
2019-02-26T04:06:12.275Z,5.90
2019-02-26T04:08:42.224Z,5.90
2019-02-26T04:11:13.688Z,6.10
2019-02-26T04:13:43.312Z,6.40
2019-02-26T04:16:12.961Z,6.60
2019-02-26T04:18:41.747Z,6.60
2019-02-26T04:21:14.964Z,6.50
2019-02-26T04:23:44.557Z,6.60
2019-02-26T04:26:47.460Z,6.50
2019-02-26T04:29:49.392Z,6.40
2019-02-26T04:33:04.163Z,6.20
2019-02-26T04:35:57.873Z,5.50
2019-02-26T04:39:00.873Z,5.20
2019-02-26T04:41:58.708Z,5.20
2019-02-26T04:45:01.104Z,5.40
2019-02-26T04:47:33.837Z,5.70
2019-02-26T04:50:06.261Z,6.00
2019-02-26T04:52:37.774Z,6.20
2019-02-26T04:55:06.038Z,6.20
2019-02-26T04:57:35.039Z,6.40
2019-02-26T05:00:10.430Z,6.40
2019-02-26T05:02:38.674Z,6.40
2019-02-26T05:05:09.496Z,6.30
2019-02-26T05:07:41.263Z,6.30
2019-02-26T05:10:09.234Z,6.30
2019-02-26T05:12:40.138Z,6.30
2019-02-26T05:15:11.635Z,6.30
2019-02-26T05:17:39.383Z,6.20
2019-02-26T05:20:10.659Z,6.00
2019-02-26T05:22:38.922Z,5.90
2019-02-26T05:25:11.043Z,5.90
2019-02-26T05:27:39.943Z,6.00
2019-02-26T05:30:09.738Z,6.20
2019-02-26T05:32:39.773Z,6.20
2019-02-26T05:35:08.729Z,6.00
2019-02-26T05:37:40.748Z,5.80
2019-02-26T05:40:14.956Z,5.80
2019-02-26T05:42:41.069Z,5.90
2019-02-26T05:45:09.945Z,5.90
2019-02-26T05:47:39.261Z,5.90
2019-02-26T05:50:13.095Z,5.90
2019-02-26T05:52:38.664Z,5.70
2019-02-26T05:55:07.877Z,5.70
2019-02-26T05:57:36.590Z,5.60
2019-02-26T06:00:08.243Z,5.40
2019-02-26T06:02:39.480Z,5.20
2019-02-26T06:05:07.733Z,5.20
2019-02-26T06:07:38.592Z,5.10
2019-02-26T06:10:07.658Z,5.20
2019-02-26T06:12:38.978Z,5.20
2019-02-26T06:15:08.173Z,5.10
2019-02-26T06:17:40.655Z,5.00
2019-02-26T06:20:23.566Z,5.10
2019-02-26T06:22:52.585Z,4.90
2019-02-26T06:25:24.324Z,4.90
2019-02-26T06:27:52.036Z,4.80
2019-02-26T06:30:22.287Z,5.10
2019-02-26T06:32:51.052Z,5.20
2019-02-26T06:35:20.205Z,5.20
2019-02-26T06:37:48.944Z,5.40
2019-02-26T06:40:17.748Z,5.50
2019-02-26T06:42:46.921Z,5.60
2019-02-26T06:45:16.809Z,5.90
2019-02-26T06:47:48.451Z,6.00
2019-02-26T06:50:18.719Z,6.20
2019-02-26T06:52:47.833Z,6.20
2019-02-26T06:55:17.368Z,6.20
2019-02-26T06:57:46.975Z,6.50
2019-02-26T07:00:19.696Z,7.60
2019-02-26T07:02:47.716Z,8.70
2019-02-26T07:05:16.575Z,9.20
2019-02-26T07:07:45.584Z,9.50
2019-02-26T07:10:18.465Z,9.70
2019-02-26T07:12:46.306Z,9.70
2019-02-26T07:15:16.112Z,9.80
2019-02-26T07:17:45.928Z,9.70
2019-02-26T07:20:15.291Z,9.70
2019-02-26T07:22:46.799Z,9.60
2019-02-26T07:25:16.601Z,9.20
2019-02-26T07:27:46.925Z,9.60
2019-02-26T07:30:15.638Z,10.10
2019-02-26T07:32:46.201Z,10.50
2019-02-26T07:35:16.716Z,10.70
2019-02-26T07:37:45.692Z,11.20
2019-02-26T07:40:18.730Z,11.40
2019-02-26T07:42:49.180Z,11.00
2019-02-26T07:45:21.901Z,10.80
2019-02-26T07:47:50.874Z,11.20
2019-02-26T07:58:21.183Z,13.00
2019-02-26T08:00:52.256Z,13.60
2019-02-26T08:03:22.444Z,14.10
2019-02-26T13:36:53.763Z,23.20
2019-02-26T13:42:03.670Z,23.00
2019-02-26T13:49:43.688Z,22.90
2019-02-26T14:24:28.796Z,22.30
2019-02-26T14:34:52.460Z,22.20
2019-02-26T15:28:49.511Z,21.10
2019-02-26T15:31:18.990Z,21.10
2019-02-26T15:33:48.460Z,21.00
2019-02-26T15:36:17.596Z,20.80
2019-02-26T15:38:46.476Z,20.90
2019-02-26T15:41:15.349Z,21.00
2019-02-26T15:43:45.213Z,20.80
2019-02-26T15:46:14.150Z,20.70
2019-02-26T15:48:42.887Z,20.80
2019-02-26T15:51:14.607Z,20.60
2019-02-26T15:53:42.985Z,20.50
2019-02-26T15:56:12.614Z,20.50
2019-02-26T15:58:41.483Z,20.40
2019-02-26T16:01:15.194Z,20.40
2019-02-26T16:03:44.492Z,20.20
2019-02-26T16:06:14.574Z,20.20
2019-02-26T16:08:43.937Z,20.10
2019-02-26T16:11:13.257Z,20.00
2019-02-26T16:13:42.842Z,20.00
2019-02-26T16:16:11.649Z,19.90
2019-02-26T16:18:41.132Z,19.70
2019-02-26T16:21:10.112Z,19.60
2019-02-26T16:23:38.869Z,19.50
2019-02-26T16:26:08.645Z,19.40
2019-02-26T16:28:37.627Z,19.30
2019-02-26T16:31:06.673Z,19.10
2019-02-26T16:33:35.444Z,19.10
2019-02-26T16:36:04.328Z,18.90
2019-02-26T16:38:33.586Z,18.90
2019-02-26T16:41:05.595Z,18.80
2019-02-26T16:43:34.401Z,18.70
2019-02-26T16:46:03.909Z,18.70
2019-02-26T16:48:32.700Z,18.70
2019-02-26T16:51:01.665Z,18.60
2019-02-26T16:53:34.186Z,18.50
2019-02-26T16:56:04.587Z,18.40
2019-02-26T16:58:35.608Z,18.30
2019-02-26T17:01:06.585Z,18.20
2019-02-26T17:03:36.419Z,18.00
2019-02-26T17:06:06.024Z,17.90
2019-02-26T17:08:35.693Z,17.80
2019-02-26T17:11:05.603Z,17.70
2019-02-26T17:13:36.038Z,17.70
2019-02-26T17:16:05.316Z,17.60
2019-02-26T17:18:36.868Z,17.50
2019-02-26T17:21:06.494Z,17.50
2019-02-26T17:23:35.721Z,17.40
2019-02-26T17:26:05.138Z,17.30
2019-02-26T17:28:35.948Z,17.10
2019-02-26T17:31:04.888Z,17.10
2019-02-26T17:33:34.896Z,17.00
2019-02-26T17:36:03.983Z,16.90
2019-02-26T17:38:32.879Z,16.80
2019-02-26T17:41:01.717Z,16.70
2019-02-26T17:43:30.704Z,16.60
2019-02-26T17:45:59.567Z,16.60
2019-02-26T17:48:30.538Z,16.50
2019-02-26T17:50:59.190Z,16.40
2019-02-26T17:53:28.351Z,16.40
2019-02-26T17:55:57.187Z,16.30
2019-02-26T17:58:26.171Z,16.20
2019-02-26T18:00:57.254Z,16.20
2019-02-26T18:03:26.060Z,16.20
2019-02-26T18:05:55.177Z,16.00
2019-02-26T18:08:24.004Z,15.90
2019-02-26T18:10:52.728Z,15.80
2019-02-26T18:13:21.796Z,15.80
2019-02-26T18:15:50.519Z,15.70
2019-02-26T18:18:19.430Z,15.60
2019-02-26T18:20:49.331Z,15.60
2019-02-26T18:23:18.545Z,15.50
2019-02-26T18:25:47.523Z,15.50
2019-02-26T18:28:17.248Z,15.40
2019-02-26T18:30:46.118Z,15.20
2019-02-26T18:33:14.868Z,15.00
2019-02-26T18:35:43.796Z,15.00
2019-02-26T18:38:12.540Z,15.00
2019-02-26T18:40:41.863Z,14.80
2019-02-26T18:43:11.651Z,14.70
2019-02-26T18:45:41.873Z,14.60
2019-02-26T18:48:12.644Z,14.70
2019-02-26T18:50:41.891Z,14.70
2019-02-26T18:53:11.769Z,14.70
2019-02-26T18:55:43.821Z,14.60
2019-02-26T18:58:13.744Z,14.60
2019-02-26T19:00:42.940Z,14.50
2019-02-26T19:03:12.328Z,14.60
2019-02-26T19:05:41.154Z,14.50
2019-02-26T19:08:10.408Z,14.40
2019-02-26T19:10:39.550Z,14.40
2019-02-26T19:13:08.611Z,14.40
2019-02-26T19:15:37.331Z,14.40
2019-02-26T19:18:06.376Z,14.50
2019-02-26T19:20:35.283Z,14.40
2019-02-26T19:23:04.060Z,14.40
2019-02-26T19:25:33.068Z,14.30
2019-02-26T19:28:03.356Z,14.20
2019-02-26T19:30:32.159Z,14.20
2019-02-26T19:33:01.035Z,14.10
2019-02-26T19:35:29.874Z,14.00
2019-02-26T19:37:58.966Z,13.90
2019-02-26T19:40:31.264Z,13.90
2019-02-26T19:42:59.999Z,13.90
2019-02-26T19:45:29.287Z,13.90
2019-02-26T19:47:58.079Z,13.80
2019-02-26T19:50:28.613Z,13.80
2019-02-26T19:53:01.767Z,13.60
2019-02-26T19:55:30.581Z,13.60
2019-02-26T19:58:02.901Z,13.70
2019-02-26T20:00:30.504Z,13.60
2019-02-26T20:02:59.268Z,13.60
2019-02-26T20:05:28.360Z,13.40
2019-02-26T20:07:57.496Z,13.30
2019-02-26T20:10:26.441Z,13.30
2019-02-26T20:12:55.558Z,13.00
2019-02-26T20:15:24.378Z,12.80
2019-02-26T20:17:53.449Z,12.80
2019-02-26T20:20:22.288Z,12.90
2019-02-26T20:22:51.082Z,12.60
2019-02-26T20:25:20.084Z,12.30
2019-02-26T20:27:48.830Z,12.40
2019-02-26T20:30:20.269Z,12.00
2019-02-26T20:32:49.511Z,12.10
2019-02-26T20:35:18.545Z,12.20
2019-02-26T20:37:47.489Z,12.10
2019-02-26T20:40:18.374Z,12.10
2019-02-26T20:42:47.238Z,12.30
2019-02-26T20:45:18.139Z,12.50
2019-02-26T20:47:48.194Z,12.60
2019-02-26T20:50:20.024Z,12.60
2019-02-26T20:52:47.620Z,12.40
2019-02-26T20:55:19.125Z,12.40
2019-02-26T20:57:48.653Z,12.40
2019-02-26T21:00:18.897Z,12.40
2019-02-26T21:02:47.663Z,12.30
2019-02-26T21:05:16.652Z,12.20
2019-02-26T21:07:45.613Z,12.10
2019-02-26T21:10:16.070Z,11.80
2019-02-26T21:12:45.052Z,11.50
2019-02-26T21:15:17.558Z,11.30
2019-02-26T21:17:46.538Z,11.10
2019-02-26T21:20:15.716Z,11.10
2019-02-26T21:22:44.576Z,11.00
2019-02-26T21:25:13.809Z,10.80
2019-02-26T21:27:42.692Z,10.60
2019-02-26T21:30:15.840Z,10.50
2019-02-26T21:32:45.087Z,10.40
2019-02-26T21:35:14.157Z,10.30
2019-02-26T21:37:42.950Z,10.30
2019-02-26T21:40:16.258Z,10.30
2019-02-26T21:42:44.511Z,10.10
2019-02-26T21:45:16.154Z,10.10
2019-02-26T21:47:45.096Z,10.00
2019-02-26T21:50:14.182Z,10.00
2019-02-26T21:52:43.449Z,9.80
2019-02-26T21:55:12.437Z,9.80
2019-02-26T21:57:41.332Z,9.60
2019-02-26T22:00:15.504Z,9.60
2019-02-26T22:02:44.477Z,9.60
2019-02-26T22:05:13.331Z,9.60
2019-02-26T22:07:42.179Z,9.60
2019-02-26T22:10:13.385Z,9.70
2019-02-26T22:12:42.576Z,9.70
2019-02-26T22:15:17.219Z,9.50
2019-02-26T22:17:46.400Z,9.40
2019-02-26T22:20:23.346Z,9.30
2019-02-26T22:22:45.829Z,9.40
2019-02-26T22:25:16.990Z,9.50
2019-02-26T22:27:46.223Z,9.40
2019-02-26T22:30:21.440Z,9.10
2019-02-26T22:32:47.172Z,9.10
2019-02-26T22:35:17.746Z,9.00
2019-02-26T22:37:46.807Z,9.10
2019-02-26T22:40:15.795Z,9.00
2019-02-26T22:42:44.583Z,9.00
2019-02-26T22:45:14.060Z,9.10
2019-02-26T22:47:44.060Z,9.10
2019-02-26T22:50:14.042Z,8.90
2019-02-26T22:52:43.273Z,9.00
2019-02-26T22:55:16.037Z,9.20
2019-02-26T22:57:42.815Z,9.50
2019-02-26T23:00:56.995Z,9.30
2019-02-26T23:03:25.947Z,9.40
2019-02-26T23:05:58.768Z,9.00
2019-02-26T23:08:26.475Z,8.80
2019-02-26T23:10:57.394Z,8.50
2019-02-26T23:13:31.526Z,8.30
2019-02-26T23:15:59.370Z,8.40
2019-02-26T23:18:28.416Z,8.30
2019-02-26T23:20:58.971Z,8.20
2019-02-26T23:23:27.948Z,8.20
2019-02-26T23:25:57.052Z,8.20
2019-02-26T23:28:26.043Z,8.40
2019-02-26T23:30:59.628Z,8.20
2019-02-26T23:33:26.300Z,8.20
2019-02-26T23:35:55.717Z,7.90
2019-02-26T23:38:24.869Z,7.60
2019-02-26T23:40:53.657Z,7.70
2019-02-26T23:43:22.568Z,8.00
2019-02-26T23:45:51.633Z,8.10
2019-02-26T23:48:20.412Z,8.20
2019-02-26T23:50:49.601Z,8.40
2019-02-26T23:53:18.395Z,8.50
2019-02-26T23:55:48.200Z,8.20
2019-02-26T23:58:17.204Z,7.90
